sensor_id;sensor_type;location;lat;lon;timestamp;temperature;humidity
36652;DHT22;53334;51.976;20.144;2024-03-17T00:01:18;26.00;43.30
36652;DHT22;53334;51.976;20.144;2024-03-17T00:03:50;26.00;43.30
36652;DHT22;53334;51.976;20.144;2024-03-17T00:06:25;26.00;43.30
36652;DHT22;53334;51.976;20.144;2024-03-17T00:08:56;26.00;43.30
36652;DHT22;53334;51.976;20.144;2024-03-17T00:11:28;26.00;43.90
36652;DHT22;53334;51.976;20.144;2024-03-17T00:14:01;26.00;43.50
36652;DHT22;53334;51.976;20.144;2024-03-17T00:16:33;26.00;43.50
36652;DHT22;53334;51.976;20.144;2024-03-17T00:19:05;26.00;43.50
36652;DHT22;53334;51.976;20.144;2024-03-17T00:21:36;26.00;44.10
36652;DHT22;53334;51.976;20.144;2024-03-17T00:24:08;26.00;43.60
36652;DHT22;53334;51.976;20.144;2024-03-17T00:26:44;26.00;43.60
36652;DHT22;53334;51.976;20.144;2024-03-17T00:29:17;26.00;43.60
36652;DHT22;53334;51.976;20.144;2024-03-17T00:31:48;26.00;43.70
36652;DHT22;53334;51.976;20.144;2024-03-17T00:34:19;26.00;43.70
36652;DHT22;53334;51.976;20.144;2024-03-17T00:36:51;26.00;43.90
36652;DHT22;53334;51.976;20.144;2024-03-17T00:39:22;26.00;43.80
36652;DHT22;53334;51.976;20.144;2024-03-17T00:41:54;26.00;43.90
36652;DHT22;53334;51.976;20.144;2024-03-17T00:44:27;26.00;43.90
36652;DHT22;53334;51.976;20.144;2024-03-17T00:47:00;26.00;43.90
36652;DHT22;53334;51.976;20.144;2024-03-17T00:49:33;26.00;43.90
36652;DHT22;53334;51.976;20.144;2024-03-17T00:52:06;26.00;43.90
36652;DHT22;53334;51.976;20.144;2024-03-17T00:54:37;26.00;43.90
36652;DHT22;53334;51.976;20.144;2024-03-17T00:57:09;26.00;43.90
36652;DHT22;53334;51.976;20.144;2024-03-17T00:59:44;26.00;43.90
36652;DHT22;53334;51.976;20.144;2024-03-17T01:02:16;26.00;43.80
36652;DHT22;53334;51.976;20.144;2024-03-17T01:04:47;26.00;43.80
36652;DHT22;53334;51.976;20.144;2024-03-17T01:07:19;26.00;43.80
36652;DHT22;53334;51.976;20.144;2024-03-17T01:09:50;26.00;43.80
36652;DHT22;53334;51.976;20.144;2024-03-17T01:12:23;26.00;43.80
36652;DHT22;53334;51.976;20.144;2024-03-17T01:14:55;26.00;43.80
36652;DHT22;53334;51.976;20.144;2024-03-17T01:17:27;26.00;43.80
36652;DHT22;53334;51.976;20.144;2024-03-17T01:19:58;26.00;43.90
36652;DHT22;53334;51.976;20.144;2024-03-17T01:22:30;26.00;44.00
36652;DHT22;53334;51.976;20.144;2024-03-17T01:25:01;26.00;44.10
36652;DHT22;53334;51.976;20.144;2024-03-17T01:27:33;26.00;44.00
36652;DHT22;53334;51.976;20.144;2024-03-17T01:30:09;26.00;44.00
36652;DHT22;53334;51.976;20.144;2024-03-17T01:32:41;26.00;44.00
36652;DHT22;53334;51.976;20.144;2024-03-17T01:35:12;26.00;44.00
36652;DHT22;53334;51.976;20.144;2024-03-17T01:37:44;26.00;44.00
36652;DHT22;53334;51.976;20.144;2024-03-17T01:40:15;26.00;44.00
36652;DHT22;53334;51.976;20.144;2024-03-17T01:42:47;26.00;44.00
36652;DHT22;53334;51.976;20.144;2024-03-17T01:45:25;26.00;43.90
36652;DHT22;53334;51.976;20.144;2024-03-17T01:47:58;26.00;43.80
36652;DHT22;53334;51.976;20.144;2024-03-17T01:50:30;26.00;43.80
36652;DHT22;53334;51.976;20.144;2024-03-17T01:53:06;26.00;43.80
36652;DHT22;53334;51.976;20.144;2024-03-17T01:55:40;26.00;43.70
36652;DHT22;53334;51.976;20.144;2024-03-17T01:58:17;26.00;43.70
36652;DHT22;53334;51.976;20.144;2024-03-17T02:00:51;26.00;43.70
36652;DHT22;53334;51.976;20.144;2024-03-17T02:03:23;26.00;43.60
36652;DHT22;53334;51.976;20.144;2024-03-17T02:05:54;26.00;43.70
36652;DHT22;53334;51.976;20.144;2024-03-17T02:08:26;26.00;43.70
36652;DHT22;53334;51.976;20.144;2024-03-17T02:10:57;26.00;43.70
36652;DHT22;53334;51.976;20.144;2024-03-17T02:13:31;26.00;43.70
36652;DHT22;53334;51.976;20.144;2024-03-17T02:16:04;26.00;43.70
36652;DHT22;53334;51.976;20.144;2024-03-17T02:18:36;26.00;43.70
36652;DHT22;53334;51.976;20.144;2024-03-17T02:21:07;26.00;43.60
36652;DHT22;53334;51.976;20.144;2024-03-17T02:23:41;26.00;43.60
36652;DHT22;53334;51.976;20.144;2024-03-17T02:26:13;26.00;43.50
36652;DHT22;53334;51.976;20.144;2024-03-17T02:28:44;26.00;43.40
36652;DHT22;53334;51.976;20.144;2024-03-17T02:31:17;26.00;43.40
36652;DHT22;53334;51.976;20.144;2024-03-17T02:33:48;26.00;43.40
36652;DHT22;53334;51.976;20.144;2024-03-17T02:36:19;26.00;43.30
36652;DHT22;53334;51.976;20.144;2024-03-17T02:38:53;26.00;43.30
36652;DHT22;53334;51.976;20.144;2024-03-17T02:41:42;26.00;43.30
36652;DHT22;53334;51.976;20.144;2024-03-17T02:44:14;26.00;43.40
36652;DHT22;53334;51.976;20.144;2024-03-17T02:46:46;26.00;43.40
36652;DHT22;53334;51.976;20.144;2024-03-17T02:49:18;26.00;43.40
36652;DHT22;53334;51.976;20.144;2024-03-17T02:51:50;26.00;43.50
36652;DHT22;53334;51.976;20.144;2024-03-17T02:54:23;26.00;43.60
36652;DHT22;53334;51.976;20.144;2024-03-17T02:56:55;26.00;43.60
36652;DHT22;53334;51.976;20.144;2024-03-17T02:59:27;26.00;43.60
36652;DHT22;53334;51.976;20.144;2024-03-17T03:01:59;26.00;43.60
36652;DHT22;53334;51.976;20.144;2024-03-17T03:04:31;26.00;43.60
36652;DHT22;53334;51.976;20.144;2024-03-17T03:07:03;26.00;43.50
36652;DHT22;53334;51.976;20.144;2024-03-17T03:09:37;26.00;43.50
36652;DHT22;53334;51.976;20.144;2024-03-17T03:12:08;26.00;43.60
36652;DHT22;53334;51.976;20.144;2024-03-17T03:14:40;26.00;43.50
36652;DHT22;53334;51.976;20.144;2024-03-17T03:17:12;26.00;43.60
36652;DHT22;53334;51.976;20.144;2024-03-17T03:19:44;26.00;43.50
36652;DHT22;53334;51.976;20.144;2024-03-17T03:22:16;26.00;43.50
36652;DHT22;53334;51.976;20.144;2024-03-17T03:24:52;26.00;43.50
36652;DHT22;53334;51.976;20.144;2024-03-17T03:27:24;26.00;43.50
36652;DHT22;53334;51.976;20.144;2024-03-17T03:29:56;26.00;43.60
36652;DHT22;53334;51.976;20.144;2024-03-17T03:32:30;26.00;43.50
36652;DHT22;53334;51.976;20.144;2024-03-17T03:35:02;26.00;43.50
36652;DHT22;53334;51.976;20.144;2024-03-17T03:37:35;26.00;43.50
36652;DHT22;53334;51.976;20.144;2024-03-17T03:40:10;26.00;43.40
36652;DHT22;53334;51.976;20.144;2024-03-17T03:42:46;26.00;43.40
36652;DHT22;53334;51.976;20.144;2024-03-17T03:45:18;26.10;43.50
36652;DHT22;53334;51.976;20.144;2024-03-17T03:47:51;26.00;43.40
36652;DHT22;53334;51.976;20.144;2024-03-17T03:50:23;26.00;43.30
36652;DHT22;53334;51.976;20.144;2024-03-17T03:52:55;26.00;43.30
36652;DHT22;53334;51.976;20.144;2024-03-17T03:55:28;26.00;43.30
36652;DHT22;53334;51.976;20.144;2024-03-17T03:58:00;26.00;43.30
36652;DHT22;53334;51.976;20.144;2024-03-17T04:00:34;26.10;43.30
36652;DHT22;53334;51.976;20.144;2024-03-17T04:03:06;26.10;43.30
36652;DHT22;53334;51.976;20.144;2024-03-17T04:05:38;26.00;43.40
36652;DHT22;53334;51.976;20.144;2024-03-17T04:08:10;26.00;43.30
36652;DHT22;53334;51.976;20.144;2024-03-17T04:10:44;26.00;43.30
36652;DHT22;53334;51.976;20.144;2024-03-17T04:13:16;26.10;43.40
36652;DHT22;53334;51.976;20.144;2024-03-17T04:15:49;26.10;43.40
36652;DHT22;53334;51.976;20.144;2024-03-17T04:18:21;26.00;43.30
36652;DHT22;53334;51.976;20.144;2024-03-17T04:20:53;26.10;43.40
36652;DHT22;53334;51.976;20.144;2024-03-17T04:23:25;26.00;43.30
36652;DHT22;53334;51.976;20.144;2024-03-17T04:25:59;26.10;43.30
36652;DHT22;53334;51.976;20.144;2024-03-17T04:28:31;26.10;43.30
36652;DHT22;53334;51.976;20.144;2024-03-17T04:31:03;26.10;43.30
36652;DHT22;53334;51.976;20.144;2024-03-17T04:33:36;26.10;43.30
36652;DHT22;53334;51.976;20.144;2024-03-17T04:36:08;26.10;43.20
36652;DHT22;53334;51.976;20.144;2024-03-17T04:38:40;26.10;43.20
36652;DHT22;53334;51.976;20.144;2024-03-17T04:41:15;26.10;43.10
36652;DHT22;53334;51.976;20.144;2024-03-17T04:43:47;26.10;43.20
36652;DHT22;53334;51.976;20.144;2024-03-17T04:46:19;26.10;43.10
36652;DHT22;53334;51.976;20.144;2024-03-17T04:48:51;26.10;43.20
36652;DHT22;53334;51.976;20.144;2024-03-17T04:51:23;26.10;43.20
36652;DHT22;53334;51.976;20.144;2024-03-17T04:53:55;26.10;43.20
36652;DHT22;53334;51.976;20.144;2024-03-17T04:56:28;26.10;43.20
36652;DHT22;53334;51.976;20.144;2024-03-17T04:59:00;26.10;43.20
36652;DHT22;53334;51.976;20.144;2024-03-17T05:01:32;26.10;43.20
36652;DHT22;53334;51.976;20.144;2024-03-17T05:04:07;26.10;43.10
36652;DHT22;53334;51.976;20.144;2024-03-17T05:06:39;26.10;43.00
36652;DHT22;53334;51.976;20.144;2024-03-17T05:09:12;26.10;43.00
36652;DHT22;53334;51.976;20.144;2024-03-17T05:11:46;26.10;42.90
36652;DHT22;53334;51.976;20.144;2024-03-17T05:14:19;26.10;42.80
36652;DHT22;53334;51.976;20.144;2024-03-17T05:16:51;26.10;42.90
36652;DHT22;53334;51.976;20.144;2024-03-17T05:19:23;26.10;42.90
36652;DHT22;53334;51.976;20.144;2024-03-17T05:21:55;26.10;42.80
36652;DHT22;53334;51.976;20.144;2024-03-17T05:24:27;26.10;42.80
36652;DHT22;53334;51.976;20.144;2024-03-17T05:27:00;26.10;42.80
36652;DHT22;53334;51.976;20.144;2024-03-17T05:29:32;26.10;42.70
36652;DHT22;53334;51.976;20.144;2024-03-17T05:32:08;26.10;42.80
36652;DHT22;53334;51.976;20.144;2024-03-17T05:34:40;26.10;42.90
36652;DHT22;53334;51.976;20.144;2024-03-17T05:37:12;26.10;42.90
36652;DHT22;53334;51.976;20.144;2024-03-17T05:39:44;26.10;42.80
36652;DHT22;53334;51.976;20.144;2024-03-17T05:42:18;26.10;42.80
36652;DHT22;53334;51.976;20.144;2024-03-17T05:44:50;26.10;42.80
36652;DHT22;53334;51.976;20.144;2024-03-17T05:47:23;26.10;42.80
36652;DHT22;53334;51.976;20.144;2024-03-17T05:49:56;26.10;42.80
36652;DHT22;53334;51.976;20.144;2024-03-17T05:52:28;26.10;42.70
36652;DHT22;53334;51.976;20.144;2024-03-17T05:54:59;26.10;42.70
36652;DHT22;53334;51.976;20.144;2024-03-17T05:57:33;26.10;42.60
36652;DHT22;53334;51.976;20.144;2024-03-17T06:00:05;26.10;42.60
36652;DHT22;53334;51.976;20.144;2024-03-17T06:02:43;26.10;42.60
36652;DHT22;53334;51.976;20.144;2024-03-17T06:05:17;26.10;42.60
36652;DHT22;53334;51.976;20.144;2024-03-17T06:07:49;26.10;42.50
36652;DHT22;53334;51.976;20.144;2024-03-17T06:10:20;26.10;42.50
36652;DHT22;53334;51.976;20.144;2024-03-17T06:12:56;26.10;42.50
36652;DHT22;53334;51.976;20.144;2024-03-17T06:15:30;26.00;42.40
36652;DHT22;53334;51.976;20.144;2024-03-17T06:18:02;26.10;42.50
36652;DHT22;53334;51.976;20.144;2024-03-17T06:20:34;26.10;42.60
36652;DHT22;53334;51.976;20.144;2024-03-17T06:23:06;26.10;42.50
36652;DHT22;53334;51.976;20.144;2024-03-17T06:25:39;26.10;42.50
36652;DHT22;53334;51.976;20.144;2024-03-17T06:28:13;26.10;42.50
36652;DHT22;53334;51.976;20.144;2024-03-17T06:30:45;26.10;42.40
36652;DHT22;53334;51.976;20.144;2024-03-17T06:33:19;26.10;42.40
36652;DHT22;53334;51.976;20.144;2024-03-17T06:35:51;26.10;42.40
36652;DHT22;53334;51.976;20.144;2024-03-17T06:38:23;26.10;42.40
36652;DHT22;53334;51.976;20.144;2024-03-17T06:40:55;26.10;42.40
36652;DHT22;53334;51.976;20.144;2024-03-17T06:43:28;26.10;42.30
36652;DHT22;53334;51.976;20.144;2024-03-17T06:46:00;26.10;42.30
36652;DHT22;53334;51.976;20.144;2024-03-17T06:48:32;26.10;42.30
36652;DHT22;53334;51.976;20.144;2024-03-17T06:51:04;26.10;42.30
36652;DHT22;53334;51.976;20.144;2024-03-17T06:53:37;26.10;42.30
36652;DHT22;53334;51.976;20.144;2024-03-17T06:56:09;26.10;42.20
36652;DHT22;53334;51.976;20.144;2024-03-17T06:58:42;26.10;42.30
36652;DHT22;53334;51.976;20.144;2024-03-17T07:01:14;26.10;42.20
36652;DHT22;53334;51.976;20.144;2024-03-17T07:03:46;26.10;42.30
36652;DHT22;53334;51.976;20.144;2024-03-17T07:06:18;26.10;42.30
36652;DHT22;53334;51.976;20.144;2024-03-17T07:08:50;26.10;42.30
36652;DHT22;53334;51.976;20.144;2024-03-17T07:11:21;26.10;42.30
36652;DHT22;53334;51.976;20.144;2024-03-17T07:13:55;26.10;42.20
36652;DHT22;53334;51.976;20.144;2024-03-17T07:16:27;26.10;42.20
36652;DHT22;53334;51.976;20.144;2024-03-17T07:19:01;26.10;42.20
36652;DHT22;53334;51.976;20.144;2024-03-17T07:21:32;26.10;42.20
36652;DHT22;53334;51.976;20.144;2024-03-17T07:24:05;26.10;42.10
36652;DHT22;53334;51.976;20.144;2024-03-17T07:26:37;26.10;42.10
36652;DHT22;53334;51.976;20.144;2024-03-17T07:29:10;26.10;42.10
36652;DHT22;53334;51.976;20.144;2024-03-17T07:31:42;26.10;42.10
36652;DHT22;53334;51.976;20.144;2024-03-17T07:34:14;26.10;42.00
36652;DHT22;53334;51.976;20.144;2024-03-17T07:36:46;26.10;42.00
36652;DHT22;53334;51.976;20.144;2024-03-17T07:39:18;26.10;42.10
36652;DHT22;53334;51.976;20.144;2024-03-17T07:41:50;26.10;42.00
36652;DHT22;53334;51.976;20.144;2024-03-17T07:44:25;26.10;42.10
36652;DHT22;53334;51.976;20.144;2024-03-17T07:46:57;26.10;42.10
36652;DHT22;53334;51.976;20.144;2024-03-17T07:49:29;26.10;42.20
36652;DHT22;53334;51.976;20.144;2024-03-17T07:52:01;26.10;42.30
36652;DHT22;53334;51.976;20.144;2024-03-17T07:54:32;26.10;42.30
36652;DHT22;53334;51.976;20.144;2024-03-17T07:57:06;26.10;42.30
36652;DHT22;53334;51.976;20.144;2024-03-17T07:59:41;26.10;42.40
36652;DHT22;53334;51.976;20.144;2024-03-17T08:02:13;26.10;42.40
36652;DHT22;53334;51.976;20.144;2024-03-17T08:04:45;26.10;42.40
36652;DHT22;53334;51.976;20.144;2024-03-17T08:07:17;26.10;42.40
36652;DHT22;53334;51.976;20.144;2024-03-17T08:09:49;26.10;42.30
36652;DHT22;53334;51.976;20.144;2024-03-17T08:12:21;26.10;42.30
36652;DHT22;53334;51.976;20.144;2024-03-17T08:14:54;26.10;42.30
36652;DHT22;53334;51.976;20.144;2024-03-17T08:17:26;26.10;42.40
36652;DHT22;53334;51.976;20.144;2024-03-17T08:19:58;26.10;42.50
36652;DHT22;53334;51.976;20.144;2024-03-17T08:22:30;26.10;42.50
36652;DHT22;53334;51.976;20.144;2024-03-17T08:25:02;26.10;42.70
36652;DHT22;53334;51.976;20.144;2024-03-17T08:27:35;26.10;43.00
36652;DHT22;53334;51.976;20.144;2024-03-17T08:30:10;26.10;43.70
36652;DHT22;53334;51.976;20.144;2024-03-17T08:32:42;26.10;43.70
36652;DHT22;53334;51.976;20.144;2024-03-17T08:35:14;26.10;43.90
36652;DHT22;53334;51.976;20.144;2024-03-17T08:37:46;26.10;43.90
36652;DHT22;53334;51.976;20.144;2024-03-17T08:40:18;26.10;43.60
36652;DHT22;53334;51.976;20.144;2024-03-17T08:42:49;26.10;43.80
36652;DHT22;53334;51.976;20.144;2024-03-17T08:45:23;26.10;43.90
36652;DHT22;53334;51.976;20.144;2024-03-17T08:47:55;26.10;44.00
36652;DHT22;53334;51.976;20.144;2024-03-17T08:50:26;26.10;44.00
36652;DHT22;53334;51.976;20.144;2024-03-17T08:52:59;26.10;44.10
36652;DHT22;53334;51.976;20.144;2024-03-17T08:55:31;26.10;44.20
36652;DHT22;53334;51.976;20.144;2024-03-17T08:58:03;26.10;44.30
36652;DHT22;53334;51.976;20.144;2024-03-17T09:00:36;26.10;44.30
36652;DHT22;53334;51.976;20.144;2024-03-17T09:03:08;26.10;44.80
36652;DHT22;53334;51.976;20.144;2024-03-17T09:05:41;26.20;44.90
36652;DHT22;53334;51.976;20.144;2024-03-17T09:08:15;26.20;44.90
36652;DHT22;53334;51.976;20.144;2024-03-17T09:10:48;26.20;44.50
36652;DHT22;53334;51.976;20.144;2024-03-17T09:13:21;26.20;43.80
36652;DHT22;53334;51.976;20.144;2024-03-17T09:15:56;26.20;43.80
36652;DHT22;53334;51.976;20.144;2024-03-17T09:18:31;26.20;43.70
36652;DHT22;53334;51.976;20.144;2024-03-17T09:21:03;26.20;43.70
36652;DHT22;53334;51.976;20.144;2024-03-17T09:23:35;26.20;44.10
36652;DHT22;53334;51.976;20.144;2024-03-17T09:26:09;26.20;44.20
36652;DHT22;53334;51.976;20.144;2024-03-17T09:28:43;26.20;44.30
36652;DHT22;53334;51.976;20.144;2024-03-17T09:31:16;26.20;44.40
36652;DHT22;53334;51.976;20.144;2024-03-17T09:33:49;26.20;44.40
36652;DHT22;53334;51.976;20.144;2024-03-17T09:36:20;26.20;44.50
36652;DHT22;53334;51.976;20.144;2024-03-17T09:38:52;26.20;44.50
36652;DHT22;53334;51.976;20.144;2024-03-17T09:41:24;26.20;44.50
36652;DHT22;53334;51.976;20.144;2024-03-17T09:43:57;26.20;44.30
36652;DHT22;53334;51.976;20.144;2024-03-17T09:46:33;26.20;44.20
36652;DHT22;53334;51.976;20.144;2024-03-17T09:49:08;26.20;44.40
36652;DHT22;53334;51.976;20.144;2024-03-17T09:51:41;26.20;45.20
36652;DHT22;53334;51.976;20.144;2024-03-17T09:54:17;26.20;45.50
36652;DHT22;53334;51.976;20.144;2024-03-17T09:56:49;26.30;45.70
36652;DHT22;53334;51.976;20.144;2024-03-17T09:59:22;26.30;46.20
36652;DHT22;53334;51.976;20.144;2024-03-17T10:01:55;26.30;46.50
36652;DHT22;53334;51.976;20.144;2024-03-17T10:04:31;26.30;46.70
36652;DHT22;53334;51.976;20.144;2024-03-17T10:07:03;26.30;46.30
36652;DHT22;53334;51.976;20.144;2024-03-17T10:09:35;26.30;46.10
36652;DHT22;53334;51.976;20.144;2024-03-17T10:14:57;26.30;46.00
36652;DHT22;53334;51.976;20.144;2024-03-17T10:17:31;26.30;45.90
36652;DHT22;53334;51.976;20.144;2024-03-17T10:20:13;26.30;44.90
36652;DHT22;53334;51.976;20.144;2024-03-17T10:22:59;26.30;37.80
36652;DHT22;53334;51.976;20.144;2024-03-17T10:25:32;26.20;34.80
36652;DHT22;53334;51.976;20.144;2024-03-17T10:28:09;26.10;36.50
36652;DHT22;53334;51.976;20.144;2024-03-17T10:30:42;26.00;38.00
36652;DHT22;53334;51.976;20.144;2024-03-17T10:33:22;26.00;38.60
36652;DHT22;53334;51.976;20.144;2024-03-17T10:35:59;25.90;39.00
36652;DHT22;53334;51.976;20.144;2024-03-17T10:38:32;26.00;39.00
36652;DHT22;53334;51.976;20.144;2024-03-17T10:41:05;25.90;38.30
36652;DHT22;53334;51.976;20.144;2024-03-17T10:43:38;26.00;38.30
36652;DHT22;53334;51.976;20.144;2024-03-17T10:46:11;26.00;38.70
36652;DHT22;53334;51.976;20.144;2024-03-17T10:48:47;26.00;38.80
36652;DHT22;53334;51.976;20.144;2024-03-17T10:51:20;26.00;38.80
36652;DHT22;53334;51.976;20.144;2024-03-17T10:53:55;26.00;39.00
36652;DHT22;53334;51.976;20.144;2024-03-17T10:56:42;26.10;39.30
36652;DHT22;53334;51.976;20.144;2024-03-17T10:59:14;26.00;39.30
36652;DHT22;53334;51.976;20.144;2024-03-17T11:01:48;26.10;39.20
36652;DHT22;53334;51.976;20.144;2024-03-17T11:04:22;26.10;39.80
36652;DHT22;53334;51.976;20.144;2024-03-17T11:06:54;26.10;40.10
36652;DHT22;53334;51.976;20.144;2024-03-17T11:09:29;26.10;40.20
36652;DHT22;53334;51.976;20.144;2024-03-17T11:12:01;26.10;40.40
36652;DHT22;53334;51.976;20.144;2024-03-17T11:14:33;26.20;40.70
36652;DHT22;53334;51.976;20.144;2024-03-17T11:17:16;26.10;40.90
36652;DHT22;53334;51.976;20.144;2024-03-17T11:20:02;26.20;41.10
36652;DHT22;53334;51.976;20.144;2024-03-17T11:22:43;26.20;41.20
36652;DHT22;53334;51.976;20.144;2024-03-17T11:25:36;26.20;41.10
36652;DHT22;53334;51.976;20.144;2024-03-17T11:28:09;26.20;40.90
36652;DHT22;53334;51.976;20.144;2024-03-17T11:30:41;26.20;40.80
36652;DHT22;53334;51.976;20.144;2024-03-17T11:38:52;26.20;40.60
36652;DHT22;53334;51.976;20.144;2024-03-17T11:41:32;26.20;40.50
36652;DHT22;53334;51.976;20.144;2024-03-17T11:44:16;26.20;40.20
36652;DHT22;53334;51.976;20.144;2024-03-17T11:46:54;26.20;40.10
36652;DHT22;53334;51.976;20.144;2024-03-17T11:49:27;26.20;39.80
36652;DHT22;53334;51.976;20.144;2024-03-17T11:51:59;26.20;39.50
36652;DHT22;53334;51.976;20.144;2024-03-17T11:54:33;26.20;39.30
36652;DHT22;53334;51.976;20.144;2024-03-17T11:57:06;26.20;39.10
36652;DHT22;53334;51.976;20.144;2024-03-17T11:59:37;26.20;39.20
36652;DHT22;53334;51.976;20.144;2024-03-17T12:02:10;26.20;39.30
36652;DHT22;53334;51.976;20.144;2024-03-17T12:04:44;26.20;39.30
36652;DHT22;53334;51.976;20.144;2024-03-17T12:07:17;26.20;39.10
36652;DHT22;53334;51.976;20.144;2024-03-17T12:09:50;26.20;38.90
36652;DHT22;53334;51.976;20.144;2024-03-17T12:12:22;26.30;38.70
36652;DHT22;53334;51.976;20.144;2024-03-17T12:14:53;26.30;38.10
36652;DHT22;53334;51.976;20.144;2024-03-17T12:17:25;26.30;37.80
36652;DHT22;53334;51.976;20.144;2024-03-17T12:19:56;26.30;37.60
36652;DHT22;53334;51.976;20.144;2024-03-17T12:22:29;26.20;37.30
36652;DHT22;53334;51.976;20.144;2024-03-17T12:25:08;26.30;37.30
36652;DHT22;53334;51.976;20.144;2024-03-17T12:27:47;26.30;37.00
36652;DHT22;53334;51.976;20.144;2024-03-17T12:30:19;26.30;37.20
36652;DHT22;53334;51.976;20.144;2024-03-17T12:32:51;26.30;37.20
36652;DHT22;53334;51.976;20.144;2024-03-17T12:35:23;26.30;37.80
36652;DHT22;53334;51.976;20.144;2024-03-17T12:37:55;26.30;38.80
36652;DHT22;53334;51.976;20.144;2024-03-17T12:40:29;26.30;39.60
36652;DHT22;53334;51.976;20.144;2024-03-17T12:43:01;26.30;40.40
36652;DHT22;53334;51.976;20.144;2024-03-17T12:45:32;26.40;41.30
36652;DHT22;53334;51.976;20.144;2024-03-17T12:48:09;26.40;42.00
36652;DHT22;53334;51.976;20.144;2024-03-17T12:50:46;26.40;43.20
36652;DHT22;53334;51.976;20.144;2024-03-17T12:53:18;26.50;42.90
36652;DHT22;53334;51.976;20.144;2024-03-17T12:55:54;26.50;42.70
36652;DHT22;53334;51.976;20.144;2024-03-17T12:58:52;26.40;42.20
36652;DHT22;53334;51.976;20.144;2024-03-17T13:01:41;26.40;41.90
36652;DHT22;53334;51.976;20.144;2024-03-17T13:04:13;26.40;41.50
36652;DHT22;53334;51.976;20.144;2024-03-17T13:06:47;26.40;41.90
36652;DHT22;53334;51.976;20.144;2024-03-17T13:09:20;26.40;43.30
36652;DHT22;53334;51.976;20.144;2024-03-17T13:11:55;26.40;44.00
36652;DHT22;53334;51.976;20.144;2024-03-17T13:14:27;26.40;43.80
36652;DHT22;53334;51.976;20.144;2024-03-17T13:16:59;26.50;43.60
36652;DHT22;53334;51.976;20.144;2024-03-17T13:19:31;26.50;43.30
36652;DHT22;53334;51.976;20.144;2024-03-17T13:22:03;26.50;43.20
36652;DHT22;53334;51.976;20.144;2024-03-17T13:24:35;26.50;43.00
36652;DHT22;53334;51.976;20.144;2024-03-17T13:27:08;26.50;42.70
36652;DHT22;53334;51.976;20.144;2024-03-17T13:29:40;26.50;42.40
36652;DHT22;53334;51.976;20.144;2024-03-17T13:32:14;26.50;42.20
36652;DHT22;53334;51.976;20.144;2024-03-17T13:34:47;26.50;41.70
36652;DHT22;53334;51.976;20.144;2024-03-17T13:37:21;26.50;41.50
36652;DHT22;53334;51.976;20.144;2024-03-17T13:39:53;26.50;41.00
36652;DHT22;53334;51.976;20.144;2024-03-17T13:42:26;26.50;40.90
36652;DHT22;53334;51.976;20.144;2024-03-17T13:44:58;26.50;40.90
36652;DHT22;53334;51.976;20.144;2024-03-17T13:47:30;26.50;40.80
36652;DHT22;53334;51.976;20.144;2024-03-17T13:50:04;26.50;41.00
36652;DHT22;53334;51.976;20.144;2024-03-17T13:52:42;26.50;41.00
36652;DHT22;53334;51.976;20.144;2024-03-17T13:55:14;26.50;41.00
36652;DHT22;53334;51.976;20.144;2024-03-17T13:57:49;26.50;40.90
36652;DHT22;53334;51.976;20.144;2024-03-17T14:00:22;26.40;40.80
36652;DHT22;53334;51.976;20.144;2024-03-17T14:02:54;26.50;40.70
36652;DHT22;53334;51.976;20.144;2024-03-17T14:05:27;26.40;40.80
36652;DHT22;53334;51.976;20.144;2024-03-17T14:07:59;26.40;41.00
36652;DHT22;53334;51.976;20.144;2024-03-17T14:10:31;26.40;41.20
36652;DHT22;53334;51.976;20.144;2024-03-17T14:13:05;26.40;40.80
36652;DHT22;53334;51.976;20.144;2024-03-17T14:15:38;26.40;40.90
36652;DHT22;53334;51.976;20.144;2024-03-17T14:18:10;26.40;39.70
36652;DHT22;53334;51.976;20.144;2024-03-17T14:20:42;26.30;40.40
36652;DHT22;53334;51.976;20.144;2024-03-17T14:23:14;26.30;40.40
36652;DHT22;53334;51.976;20.144;2024-03-17T14:25:46;26.30;39.90
36652;DHT22;53334;51.976;20.144;2024-03-17T14:28:20;26.30;39.20
36652;DHT22;53334;51.976;20.144;2024-03-17T14:30:52;26.30;40.10
36652;DHT22;53334;51.976;20.144;2024-03-17T14:33:24;26.30;40.20
36652;DHT22;53334;51.976;20.144;2024-03-17T14:35:56;26.30;40.20
36652;DHT22;53334;51.976;20.144;2024-03-17T14:38:28;26.30;40.10
36652;DHT22;53334;51.976;20.144;2024-03-17T14:41:00;26.30;38.90
36652;DHT22;53334;51.976;20.144;2024-03-17T14:43:36;26.30;39.90
36652;DHT22;53334;51.976;20.144;2024-03-17T14:46:10;26.30;39.90
36652;DHT22;53334;51.976;20.144;2024-03-17T14:48:44;26.30;39.90
36652;DHT22;53334;51.976;20.144;2024-03-17T14:51:16;26.20;39.80
36652;DHT22;53334;51.976;20.144;2024-03-17T14:53:48;26.20;36.00
36652;DHT22;53334;51.976;20.144;2024-03-17T14:56:21;26.10;30.80
36652;DHT22;53334;51.976;20.144;2024-03-17T14:58:55;25.90;29.60
36652;DHT22;53334;51.976;20.144;2024-03-17T15:01:26;25.70;30.30
36652;DHT22;53334;51.976;20.144;2024-03-17T15:04:00;25.60;29.90
36652;DHT22;53334;51.976;20.144;2024-03-17T15:06:32;25.50;32.00
36652;DHT22;53334;51.976;20.144;2024-03-17T15:09:05;25.50;33.40
36652;DHT22;53334;51.976;20.144;2024-03-17T15:11:38;25.50;34.30
36652;DHT22;53334;51.976;20.144;2024-03-17T15:14:14;25.50;32.80
36652;DHT22;53334;51.976;20.144;2024-03-17T15:16:46;25.50;33.90
36652;DHT22;53334;51.976;20.144;2024-03-17T15:19:18;25.60;32.80
36652;DHT22;53334;51.976;20.144;2024-03-17T15:21:50;25.60;33.10
36652;DHT22;53334;51.976;20.144;2024-03-17T15:24:23;25.50;34.20
36652;DHT22;53334;51.976;20.144;2024-03-17T15:26:55;25.60;34.90
36652;DHT22;53334;51.976;20.144;2024-03-17T15:29:28;25.60;35.20
36652;DHT22;53334;51.976;20.144;2024-03-17T15:32:00;25.60;35.10
36652;DHT22;53334;51.976;20.144;2024-03-17T15:34:32;25.60;34.90
36652;DHT22;53334;51.976;20.144;2024-03-17T15:37:07;25.60;35.30
36652;DHT22;53334;51.976;20.144;2024-03-17T15:39:39;25.60;35.50
36652;DHT22;53334;51.976;20.144;2024-03-17T15:42:11;25.70;35.40
36652;DHT22;53334;51.976;20.144;2024-03-17T15:44:46;25.60;35.40
36652;DHT22;53334;51.976;20.144;2024-03-17T15:47:19;25.60;35.60
36652;DHT22;53334;51.976;20.144;2024-03-17T15:49:52;25.60;35.60
36652;DHT22;53334;51.976;20.144;2024-03-17T15:52:24;25.70;35.70
36652;DHT22;53334;51.976;20.144;2024-03-17T15:54:56;25.70;35.90
36652;DHT22;53334;51.976;20.144;2024-03-17T15:57:30;25.70;35.90
36652;DHT22;53334;51.976;20.144;2024-03-17T16:00:04;25.70;35.90